Time;durP1;ratioP1;P1;durP2;ratioP2;P2;SDS_P1;SDS_P2;PMS_P1;PMS_P2;Temp;Humidity;BMP_temperature;BMP_pressure;BME280_temperature;BME280_humidity;BME280_pressure;Samples;Min_cycle;Max_cycle;Signal;HPM_P1;HPM_P2
2023/05/12 00:02:05;;;;;;;7.67;5.60;;;;;;;;;;10474213;28;20039;-81
2023/05/12 00:07:09;;;;;;;7.68;5.15;;;;;;;;;;10416847;28;20365;-80
2023/05/12 00:12:10;;;;;;;9.02;6.28;;;;;;;;;;10425700;28;20730;-80
2023/05/12 00:17:12;;;;;;;12.15;6.15;;;;;;;;;;10447381;28;20033;-80
2023/05/12 00:22:12;;;;;;;6.93;6.18;;;;;;;;;;10465230;28;20025;-80
2023/05/12 00:27:13;;;;;;;10.77;6.43;;;;;;;;;;10444915;28;20024;-80
2023/05/12 00:32:13;;;;;;;14.85;7.35;;;;;;;;;;10449362;28;20009;-80
2023/05/12 00:37:14;;;;;;;8.17;5.93;;;;;;;;;;10414919;28;20021;-80
2023/05/12 00:42:14;;;;;;;9.88;7.68;;;;;;;;;;10458041;28;20025;-80
2023/05/12 00:47:15;;;;;;;13.07;7.47;;;;;;;;;;10431559;28;20529;-81
2023/05/12 00:52:15;;;;;;;9.55;6.70;;;;;;;;;;10458916;28;20031;-81
2023/05/12 00:57:17;;;;;;;10.70;7.03;;;;;;;;;;10452713;28;20047;-80
2023/05/12 01:02:17;;;;;;;8.70;5.22;;;;;;;;;;10433299;28;20476;-80
2023/05/12 01:07:19;;;;;;;12.88;8.02;;;;;;;;;;10431812;28;20187;-80
2023/05/12 01:12:20;;;;;;;14.65;8.75;;;;;;;;;;10449743;28;20013;-81
2023/05/12 01:17:32;;;;;;;17.20;8.30;;;;;;;;;;10469405;28;20017;-79
2023/05/12 01:22:32;;;;;;;17.55;8.90;;;;;;;;;;10437427;28;20126;-80
2023/05/12 01:27:33;;;;;;;13.80;9.07;;;;;;;;;;10412120;28;20119;-83
2023/05/12 01:32:33;;;;;;;15.95;7.95;;;;;;;;;;10457041;28;20572;-81
2023/05/12 01:37:33;;;;;;;15.38;8.55;;;;;;;;;;10440539;28;20796;-81
2023/05/12 01:42:34;;;;;;;16.00;9.60;;;;;;;;;;10446898;28;20398;-81
2023/05/12 01:47:34;;;;;;;19.70;9.90;;;;;;;;;;10472908;28;20480;-81
2023/05/12 01:52:34;;;;;;;12.97;7.60;;;;;;;;;;10472943;28;20749;-80
2023/05/12 01:57:35;;;;;;;19.55;9.05;;;;;;;;;;10437820;28;20308;-80
2023/05/12 02:02:35;;;;;;;18.90;9.57;;;;;;;;;;10455754;28;20029;-82
2023/05/12 02:07:35;;;;;;;17.77;9.95;;;;;;;;;;10437611;28;20131;-81
2023/05/12 02:12:36;;;;;;;18.63;9.30;;;;;;;;;;10452722;28;20028;-82
2023/05/12 02:17:36;;;;;;;19.52;9.73;;;;;;;;;;10450839;28;20383;-80
2023/05/12 02:22:36;;;;;;;16.03;8.33;;;;;;;;;;10435998;28;20066;-82
2023/05/12 02:27:38;;;;;;;20.00;8.35;;;;;;;;;;10439280;28;20075;-82
2023/05/12 02:32:38;;;;;;;13.00;7.68;;;;;;;;;;10463831;28;20032;-81
2023/05/12 02:37:38;;;;;;;16.75;7.60;;;;;;;;;;10471126;28;20033;-82
2023/05/12 02:42:39;;;;;;;16.25;7.10;;;;;;;;;;10439446;28;20033;-82
2023/05/12 02:47:39;;;;;;;11.80;5.90;;;;;;;;;;10438869;28;20044;-82
2023/05/12 02:52:39;;;;;;;11.73;6.37;;;;;;;;;;10443243;28;20391;-82
2023/05/12 02:57:40;;;;;;;10.23;6.43;;;;;;;;;;10468842;28;20024;-79
2023/05/12 03:02:40;;;;;;;17.25;7.75;;;;;;;;;;10441939;28;20428;-80
2023/05/12 03:07:41;;;;;;;12.50;7.07;;;;;;;;;;10420020;28;20031;-80
2023/05/12 03:12:41;;;;;;;13.77;7.83;;;;;;;;;;10439706;28;20025;-80
2023/05/12 03:17:41;;;;;;;14.23;8.30;;;;;;;;;;10450861;28;20769;-79
2023/05/12 03:22:42;;;;;;;13.90;7.55;;;;;;;;;;10441875;28;20471;-80
2023/05/12 03:27:42;;;;;;;18.33;8.67;;;;;;;;;;10442747;28;20387;-78
2023/05/12 03:32:44;;;;;;;16.83;8.95;;;;;;;;;;10465126;28;20028;-79
2023/05/12 03:37:44;;;;;;;15.13;8.10;;;;;;;;;;10462869;28;20021;-78
2023/05/12 03:42:44;;;;;;;16.05;8.73;;;;;;;;;;10449949;28;20091;-78
2023/05/12 03:47:44;;;;;;;15.05;8.48;;;;;;;;;;10460601;28;20111;-78
2023/05/12 03:52:45;;;;;;;15.00;7.30;;;;;;;;;;10429223;28;20793;-79
2023/05/12 03:57:46;;;;;;;15.90;8.77;;;;;;;;;;10447635;28;20086;-80
2023/05/12 04:02:47;;;;;;;13.50;7.10;;;;;;;;;;10463498;28;20020;-77
2023/05/12 04:07:47;;;;;;;14.10;7.37;;;;;;;;;;10433979;28;20052;-80
2023/05/12 04:12:47;;;;;;;14.20;8.20;;;;;;;;;;10421146;28;20086;-77
2023/05/12 04:17:49;;;;;;;21.67;8.82;;;;;;;;;;10470925;28;20391;-79
2023/05/12 04:22:50;;;;;;;16.25;8.55;;;;;;;;;;10470166;28;20036;-81
2023/05/12 04:27:50;;;;;;;16.75;8.00;;;;;;;;;;10444284;28;20468;-74
2023/05/12 04:32:51;;;;;;;15.57;9.10;;;;;;;;;;10457730;28;20029;-74
2023/05/12 04:37:51;;;;;;;12.10;7.30;;;;;;;;;;10455085;28;20282;-75
2023/05/12 04:42:51;;;;;;;16.75;7.10;;;;;;;;;;10465029;28;20025;-74
2023/05/12 04:47:52;;;;;;;19.80;8.60;;;;;;;;;;10466879;28;20078;-76
2023/05/12 04:52:52;;;;;;;14.00;7.35;;;;;;;;;;10466898;28;20764;-76
2023/05/12 04:57:52;;;;;;;17.80;8.37;;;;;;;;;;10464579;28;20033;-76
2023/05/12 05:02:52;;;;;;;16.33;8.30;;;;;;;;;;10447671;28;20081;-75
2023/05/12 05:07:53;;;;;;;12.70;6.50;;;;;;;;;;10464902;28;20024;-76
2023/05/12 05:12:53;;;;;;;13.90;7.90;;;;;;;;;;10464679;28;20749;-76
2023/05/12 05:17:53;;;;;;;13.52;7.65;;;;;;;;;;10446625;28;20493;-76
2023/05/12 05:22:54;;;;;;;14.83;8.03;;;;;;;;;;10447498;28;20025;-75
2023/05/12 05:28:02;;;;;;;12.67;6.93;;;;;;;;;;10451320;28;20028;-76
2023/05/12 05:33:03;;;;;;;13.90;7.35;;;;;;;;;;10418156;28;20037;-77
2023/05/12 05:38:03;;;;;;;11.75;6.72;;;;;;;;;;10465590;28;20398;-76
2023/05/12 05:43:03;;;;;;;13.90;7.40;;;;;;;;;;10464934;28;20553;-75
2023/05/12 05:48:04;;;;;;;20.25;8.77;;;;;;;;;;10444686;28;20554;-75
2023/05/12 05:53:04;;;;;;;16.48;7.45;;;;;;;;;;10452671;28;20036;-75
2023/05/12 05:58:05;;;;;;;14.48;7.65;;;;;;;;;;10443287;28;20024;-74
2023/05/12 06:03:05;;;;;;;14.98;8.25;;;;;;;;;;10464742;28;20467;-74
2023/05/12 06:08:07;;;;;;;13.48;8.02;;;;;;;;;;10464332;28;20507;-74
2023/05/12 06:13:08;;;;;;;16.58;8.80;;;;;;;;;;10446055;28;20093;-74
2023/05/12 06:18:08;;;;;;;12.97;7.93;;;;;;;;;;10464558;28;20184;-74
2023/05/12 06:23:08;;;;;;;14.10;8.27;;;;;;;;;;10464405;28;20491;-74
2023/05/12 06:28:09;;;;;;;14.07;7.80;;;;;;;;;;10462138;28;20545;-74
2023/05/12 06:33:09;;;;;;;14.67;8.47;;;;;;;;;;10462933;28;20039;-74
2023/05/12 06:38:10;;;;;;;18.77;8.27;;;;;;;;;;10462492;28;20080;-74
2023/05/12 06:43:11;;;;;;;14.43;8.53;;;;;;;;;;10462270;28;20029;-74
2023/05/12 06:48:12;;;;;;;20.20;8.73;;;;;;;;;;10461873;28;20655;-74
2023/05/12 06:53:12;;;;;;;14.10;7.90;;;;;;;;;;10462415;28;20048;-74
2023/05/12 06:58:12;;;;;;;26.77;8.43;;;;;;;;;;10443187;28;20040;-74
2023/05/12 07:03:13;;;;;;;15.43;9.13;;;;;;;;;;10461961;28;20028;-74
2023/05/12 07:08:13;;;;;;;16.77;8.73;;;;;;;;;;10462242;28;20370;-73
2023/05/12 07:13:13;;;;;;;15.17;8.07;;;;;;;;;;10462372;28;20115;-74
2023/05/12 07:18:14;;;;;;;15.67;9.10;;;;;;;;;;10461721;28;20407;-75
2023/05/12 07:23:14;;;;;;;14.80;7.07;;;;;;;;;;10461473;28;20466;-75
2023/05/12 07:28:15;;;;;;;15.25;8.52;;;;;;;;;;10461437;28;20136;-76
2023/05/12 07:33:15;;;;;;;14.68;7.72;;;;;;;;;;10460907;28;20031;-75
2023/05/12 07:38:16;;;;;;;18.80;8.50;;;;;;;;;;10461498;28;20054;-76
2023/05/12 07:43:16;;;;;;;14.40;5.82;;;;;;;;;;10461608;28;20360;-75
2023/05/12 07:48:17;;;;;;;16.33;6.90;;;;;;;;;;10461045;28;20036;-75
2023/05/12 07:53:17;;;;;;;13.63;7.40;;;;;;;;;;10461368;28;20040;-75
2023/05/12 07:58:18;;;;;;;12.17;6.67;;;;;;;;;;10464083;28;20068;-74
2023/05/12 08:03:18;;;;;;;17.30;7.75;;;;;;;;;;10468583;28;20086;-74
2023/05/12 08:08:18;;;;;;;11.98;6.93;;;;;;;;;;10468677;28;20032;-74
2023/05/12 08:13:18;;;;;;;13.18;7.53;;;;;;;;;;10450715;28;20024;-73
2023/05/12 08:18:19;;;;;;;10.55;6.80;;;;;;;;;;10468325;28;20039;-74
2023/05/12 08:23:19;;;;;;;12.07;7.00;;;;;;;;;;10467906;28;20757;-74
2023/05/12 08:28:20;;;;;;;10.17;6.13;;;;;;;;;;10467843;28;20400;-74
2023/05/12 08:33:20;;;;;;;15.05;6.28;;;;;;;;;;10467941;28;20331;-74
2023/05/12 08:38:20;;;;;;;15.75;6.70;;;;;;;;;;10467422;28;20446;-74
2023/05/12 08:43:25;;;;;;;11.57;6.45;;;;;;;;;;10466380;28;20024;-74
2023/05/12 08:48:26;;;;;;;13.48;6.57;;;;;;;;;;10467092;28;20041;-74
2023/05/12 08:53:27;;;;;;;17.33;6.75;;;;;;;;;;10449135;28;20062;-75
2023/05/12 08:58:28;;;;;;;10.52;7.43;;;;;;;;;;10466384;28;20444;-74
2023/05/12 09:03:29;;;;;;;11.50;7.03;;;;;;;;;;10466678;28;20452;-74
2023/05/12 09:08:31;;;;;;;10.95;5.35;;;;;;;;;;10465679;28;20036;-74
2023/05/12 09:13:36;;;;;;;15.45;7.15;;;;;;;;;;10479937;28;20044;-75
2023/05/12 09:18:48;;;;;;;9.50;6.47;;;;;;;;;;10465444;28;20032;-74
2023/05/12 09:23:55;;;;;;;9.57;6.00;;;;;;;;;;10465919;28;20017;-74
2023/05/12 09:29:05;;;;;;;7.90;5.28;;;;;;;;;;10428714;28;20044;-75
2023/05/12 09:34:06;;;;;;;9.45;6.05;;;;;;;;;;10447619;28;20055;-75
2023/05/12 09:39:08;;;;;;;12.75;6.80;;;;;;;;;;10464897;28;20037;-75
2023/05/12 09:44:09;;;;;;;8.88;5.13;;;;;;;;;;10464480;28;20772;-75
2023/05/12 09:49:10;;;;;;;10.70;5.45;;;;;;;;;;10410789;28;20056;-75
2023/05/12 09:54:11;;;;;;;9.18;5.20;;;;;;;;;;10436762;28;20515;-75
2023/05/12 09:59:12;;;;;;;7.45;4.20;;;;;;;;;;10453227;28;20032;-75
2023/05/12 10:04:12;;;;;;;12.77;5.50;;;;;;;;;;10463944;28;20028;-75
2023/05/12 10:09:22;;;;;;;4.90;3.63;;;;;;;;;;10463560;28;20471;-75
2023/05/12 10:14:22;;;;;;;8.25;4.60;;;;;;;;;;10463666;28;20020;-76
2023/05/12 10:19:24;;;;;;;7.82;3.92;;;;;;;;;;10444442;28;20445;-75
2023/05/12 10:24:26;;;;;;;14.43;5.10;;;;;;;;;;10463039;28;20089;-75
2023/05/12 10:29:31;;;;;;;5.82;3.33;;;;;;;;;;10445268;28;20082;-76
2023/05/12 10:34:32;;;;;;;8.57;3.83;;;;;;;;;;10463276;28;20478;-76
2023/05/12 10:39:33;;;;;;;8.05;3.40;;;;;;;;;;10462442;28;20664;-76
2023/05/12 10:44:37;;;;;;;9.18;3.97;;;;;;;;;;10447953;28;20020;-76
2023/05/12 10:49:41;;;;;;;11.55;4.10;;;;;;;;;;10462932;28;20048;-76
2023/05/12 10:54:43;;;;;;;7.60;4.05;;;;;;;;;;10462016;28;20028;-77
2023/05/12 10:59:47;;;;;;;4.68;3.15;;;;;;;;;;10462415;28;20037;-76
2023/05/12 11:04:48;;;;;;;13.15;4.35;;;;;;;;;;10444160;28;20020;-76
2023/05/12 11:09:49;;;;;;;10.85;4.63;;;;;;;;;;10462204;28;20036;-74
2023/05/12 11:14:49;;;;;;;6.60;3.97;;;;;;;;;;10461595;28;20036;-76
2023/05/12 11:19:49;;;;;;;11.35;4.25;;;;;;;;;;10461440;28;20406;-76
2023/05/12 11:24:51;;;;;;;12.47;4.90;;;;;;;;;;10461233;28;20020;-76
2023/05/12 11:29:58;;;;;;;10.43;4.28;;;;;;;;;;10439434;28;20032;-75
2023/05/12 11:35:08;;;;;;;4.65;2.80;;;;;;;;;;10473263;28;20066;-75
2023/05/12 11:40:19;;;;;;;6.97;3.78;;;;;;;;;;10458384;28;20032;-76
2023/05/12 11:45:20;;;;;;;6.55;4.40;;;;;;;;;;10476024;28;20403;-76
2023/05/12 11:50:22;;;;;;;4.85;3.42;;;;;;;;;;10476347;28;20067;-76
2023/05/12 11:55:23;;;;;;;15.85;6.13;;;;;;;;;;10476051;28;20169;-76
2023/05/12 12:00:29;;;;;;;14.43;5.13;;;;;;;;;;10475633;28;20040;-75
2023/05/12 12:05:29;;;;;;;9.25;4.25;;;;;;;;;;10475065;28;20016;-76
2023/05/12 12:10:29;;;;;;;9.50;4.27;;;;;;;;;;10471093;28;20077;-76
2023/05/12 12:15:30;;;;;;;6.57;3.90;;;;;;;;;;10437118;28;20108;-75
2023/05/12 12:20:30;;;;;;;14.02;4.82;;;;;;;;;;10471734;28;20909;-76
2023/05/12 12:25:30;;;;;;;3.35;3.10;;;;;;;;;;10474533;28;20453;-74
2023/05/12 12:30:31;;;;;;;9.23;4.05;;;;;;;;;;10472179;28;20040;-76
2023/05/12 12:35:31;;;;;;;6.03;3.63;;;;;;;;;;10474926;28;20360;-76
2023/05/12 12:40:31;;;;;;;4.82;3.50;;;;;;;;;;10474330;28;20387;-78
2023/05/12 12:45:35;;;;;;;10.68;3.80;;;;;;;;;;10430474;28;20115;-76
2023/05/12 12:50:35;;;;;;;7.80;3.88;;;;;;;;;;10462152;28;20048;-76
2023/05/12 12:55:54;;;;;;;4.83;3.23;;;;;;;;;;10449336;28;20054;-77
2023/05/12 13:01:00;;;;;;;7.95;3.65;;;;;;;;;;10468682;28;20035;-77
2023/05/12 13:06:01;;;;;;;6.50;2.88;;;;;;;;;;10468786;28;20024;-76
2023/05/12 13:11:01;;;;;;;3.60;3.25;;;;;;;;;;10468114;28;20754;-74
2023/05/12 13:16:02;;;;;;;6.07;2.90;;;;;;;;;;10459249;28;20386;-77
2023/05/12 13:21:03;;;;;;;5.65;3.33;;;;;;;;;;10401963;28;20031;-75
2023/05/12 13:26:06;;;;;;;5.93;3.65;;;;;;;;;;10397533;28;20771;-75
2023/05/12 13:31:06;;;;;;;6.43;3.28;;;;;;;;;;10397991;28;20029;-75
2023/05/12 13:36:06;;;;;;;5.80;4.10;;;;;;;;;;10398123;28;20029;-75
2023/05/12 13:41:07;;;;;;;6.87;4.00;;;;;;;;;;10402786;28;20032;-75
2023/05/12 13:46:13;;;;;;;5.90;3.97;;;;;;;;;;10407386;28;20522;-74
2023/05/12 13:51:14;;;;;;;5.35;2.85;;;;;;;;;;10405958;28;20053;-75
2023/05/12 13:56:15;;;;;;;5.77;3.63;;;;;;;;;;10397852;28;20025;-74
2023/05/12 14:01:15;;;;;;;5.32;4.13;;;;;;;;;;10412347;28;20040;-74
2023/05/12 14:06:16;;;;;;;25.48;5.22;;;;;;;;;;10399569;28;20059;-76
2023/05/12 14:11:16;;;;;;;13.17;5.50;;;;;;;;;;10383628;28;20033;-76
2023/05/12 14:16:16;;;;;;;6.83;3.40;;;;;;;;;;10401871;28;20036;-76
2023/05/12 14:21:16;;;;;;;9.20;3.35;;;;;;;;;;10397567;28;20488;-76
2023/05/12 14:26:18;;;;;;;8.07;3.80;;;;;;;;;;10395962;28;20427;-76
2023/05/12 14:31:18;;;;;;;10.30;3.90;;;;;;;;;;10382407;28;20122;-77
2023/05/12 14:36:19;;;;;;;13.27;4.53;;;;;;;;;;10440827;28;20085;-75
2023/05/12 14:41:21;;;;;;;7.50;4.20;;;;;;;;;;10447351;28;20032;-75
2023/05/12 14:46:23;;;;;;;12.32;5.05;;;;;;;;;;10420948;28;20056;-75
2023/05/12 14:51:24;;;;;;;6.60;4.35;;;;;;;;;;10436000;28;20083;-75
2023/05/12 14:56:24;;;;;;;6.47;3.67;;;;;;;;;;10427917;28;20021;-75
2023/05/12 15:01:24;;;;;;;7.93;4.27;;;;;;;;;;10428564;28;20040;-75
2023/05/12 15:06:25;;;;;;;6.68;4.05;;;;;;;;;;10441334;28;20024;-75
2023/05/12 15:11:25;;;;;;;6.50;3.90;;;;;;;;;;10458707;28;20036;-74
2023/05/12 15:16:26;;;;;;;5.85;3.50;;;;;;;;;;10459604;28;20028;-75
2023/05/12 15:21:27;;;;;;;8.05;4.18;;;;;;;;;;10462252;28;20035;-74
2023/05/12 15:26:27;;;;;;;5.57;3.67;;;;;;;;;;10460676;28;20035;-74
2023/05/12 15:31:28;;;;;;;5.38;3.25;;;;;;;;;;10460608;28;20040;-74
2023/05/12 15:36:29;;;;;;;8.32;3.28;;;;;;;;;;10461554;28;20052;-74
2023/05/12 15:41:30;;;;;;;7.03;3.83;;;;;;;;;;10460902;28;20611;-74
2023/05/12 15:46:30;;;;;;;6.28;4.00;;;;;;;;;;10462129;28;20093;-74
2023/05/12 15:51:32;;;;;;;10.52;3.72;;;;;;;;;;10461127;28;20511;-74
2023/05/12 15:56:33;;;;;;;11.07;4.30;;;;;;;;;;10450555;28;20038;-74
2023/05/12 16:01:33;;;;;;;5.60;3.80;;;;;;;;;;10420094;28;20052;-74
2023/05/12 16:06:33;;;;;;;11.63;3.50;;;;;;;;;;10438206;28;20297;-74
2023/05/12 16:11:34;;;;;;;5.65;4.13;;;;;;;;;;10460308;28;20739;-74
2023/05/12 16:16:34;;;;;;;8.90;3.47;;;;;;;;;;10461342;28;20037;-74
2023/05/12 16:21:34;;;;;;;5.43;3.65;;;;;;;;;;10468691;28;20028;-74
2023/05/12 16:26:35;;;;;;;6.72;3.40;;;;;;;;;;10444258;28;20033;-74
2023/05/12 16:31:39;;;;;;;4.85;3.78;;;;;;;;;;10468629;28;20052;-75
2023/05/12 16:36:39;;;;;;;12.20;4.45;;;;;;;;;;10449976;28;20016;-75
2023/05/12 16:41:39;;;;;;;5.18;3.75;;;;;;;;;;10467876;28;20478;-75
2023/05/12 16:46:41;;;;;;;6.68;4.13;;;;;;;;;;10467501;28;20402;-75
2023/05/12 16:51:41;;;;;;;8.32;4.10;;;;;;;;;;10467300;28;20411;-76
2023/05/12 16:56:42;;;;;;;8.33;4.30;;;;;;;;;;10467339;28;20043;-75
2023/05/12 17:01:46;;;;;;;5.10;3.13;;;;;;;;;;10466964;28;20344;-75
2023/05/12 17:06:48;;;;;;;9.65;4.35;;;;;;;;;;10467345;28;20028;-75
2023/05/12 17:11:49;;;;;;;5.15;3.80;;;;;;;;;;10474128;28;20128;-75
2023/05/12 17:16:49;;;;;;;7.45;4.22;;;;;;;;;;10448837;28;20036;-75
2023/05/12 17:21:49;;;;;;;11.40;5.22;;;;;;;;;;10443972;28;20365;-75
2023/05/12 17:26:50;;;;;;;8.82;3.70;;;;;;;;;;10382515;28;20480;-75
2023/05/12 17:31:50;;;;;;;9.30;3.63;;;;;;;;;;10454395;28;20031;-75
2023/05/12 17:36:50;;;;;;;12.05;4.05;;;;;;;;;;10433851;28;20067;-75
2023/05/12 17:41:50;;;;;;;6.35;3.72;;;;;;;;;;10424510;28;20394;-75
2023/05/12 17:46:51;;;;;;;6.28;4.10;;;;;;;;;;10448627;28;20403;-75
2023/05/12 17:51:54;;;;;;;6.50;3.85;;;;;;;;;;10422982;28;20547;-75
2023/05/12 17:56:55;;;;;;;8.40;4.00;;;;;;;;;;10404407;28;20368;-75
2023/05/12 18:01:55;;;;;;;7.17;4.70;;;;;;;;;;10386868;28;20461;-76
2023/05/12 18:06:56;;;;;;;7.18;4.15;;;;;;;;;;10362282;28;20033;-75
2023/05/12 18:11:56;;;;;;;6.93;4.63;;;;;;;;;;10363446;28;20036;-75
2023/05/12 18:16:56;;;;;;;4.97;3.37;;;;;;;;;;10408477;28;20094;-74
2023/05/12 18:21:57;;;;;;;5.05;3.58;;;;;;;;;;10371297;28;20032;-74
2023/05/12 18:26:57;;;;;;;7.60;4.37;;;;;;;;;;10412739;28;20626;-77
2023/05/12 18:31:58;;;;;;;5.95;4.38;;;;;;;;;;10386435;28;20628;-76
2023/05/12 18:36:58;;;;;;;6.83;4.13;;;;;;;;;;10400979;28;20407;-76
2023/05/12 18:41:58;;;;;;;9.87;4.50;;;;;;;;;;10405081;28;20032;-75
2023/05/12 18:46:59;;;;;;;8.35;4.00;;;;;;;;;;10421874;28;20021;-75
2023/05/12 18:51:59;;;;;;;8.07;4.47;;;;;;;;;;10460129;28;20416;-76
2023/05/12 18:57:00;;;;;;;9.97;4.53;;;;;;;;;;10462557;28;20028;-74
2023/05/12 19:02:00;;;;;;;6.90;4.43;;;;;;;;;;10445880;28;20319;-76
2023/05/12 19:07:01;;;;;;;6.97;4.13;;;;;;;;;;10407821;28;20024;-75
2023/05/12 19:12:02;;;;;;;5.57;3.97;;;;;;;;;;10439315;28;20067;-81
2023/05/12 19:17:02;;;;;;;10.55;5.35;;;;;;;;;;10402817;28;20036;-82
2023/05/12 19:22:03;;;;;;;14.32;5.53;;;;;;;;;;10421305;28;20029;-82
2023/05/12 19:27:03;;;;;;;12.93;5.10;;;;;;;;;;10432930;28;20028;-82
2023/05/12 19:32:04;;;;;;;9.73;4.95;;;;;;;;;;10422840;28;20079;-82
2023/05/12 19:37:04;;;;;;;8.60;5.10;;;;;;;;;;10411976;28;20074;-82
2023/05/12 19:42:05;;;;;;;11.70;5.07;;;;;;;;;;10428694;28;20411;-82
2023/05/12 19:47:05;;;;;;;10.32;5.75;;;;;;;;;;10416732;28;20100;-82
2023/05/12 19:52:05;;;;;;;10.33;5.27;;;;;;;;;;10408216;28;20840;-83
2023/05/12 19:57:06;;;;;;;11.13;5.33;;;;;;;;;;10422754;28;20267;-83
2023/05/12 20:02:07;;;;;;;13.00;5.35;;;;;;;;;;10423273;28;20326;-83
2023/05/12 20:07:08;;;;;;;10.55;4.82;;;;;;;;;;10452882;28;20451;-83
2023/05/12 20:12:09;;;;;;;11.43;5.72;;;;;;;;;;10436164;28;20468;-83
2023/05/12 20:17:10;;;;;;;10.05;6.63;;;;;;;;;;10424546;28;20467;-80
2023/05/12 20:22:11;;;;;;;11.95;6.10;;;;;;;;;;10424914;28;20070;-82
2023/05/12 20:27:11;;;;;;;12.75;6.38;;;;;;;;;;10432182;28;20407;-82
2023/05/12 20:32:12;;;;;;;12.48;5.78;;;;;;;;;;10414938;28;20033;-81
2023/05/12 20:37:13;;;;;;;12.25;4.82;;;;;;;;;;10423649;28;20037;-80
2023/05/12 20:42:14;;;;;;;8.35;5.22;;;;;;;;;;10430137;28;20033;-81
2023/05/12 20:47:14;;;;;;;10.95;5.20;;;;;;;;;;10417400;28;20025;-82
2023/05/12 20:52:14;;;;;;;9.83;5.50;;;;;;;;;;10426412;28;20041;-82
2023/05/12 20:57:15;;;;;;;9.07;6.45;;;;;;;;;;10414291;28;20025;-82
2023/05/12 21:02:15;;;;;;;13.82;6.45;;;;;;;;;;10435402;28;20564;-82
2023/05/12 21:07:16;;;;;;;11.10;5.78;;;;;;;;;;10405314;28;20429;-82
2023/05/12 21:12:16;;;;;;;7.95;5.85;;;;;;;;;;10409446;28;20047;-82
2023/05/12 21:17:16;;;;;;;6.40;5.23;;;;;;;;;;10438801;28;20041;-81
2023/05/12 21:22:16;;;;;;;10.63;6.37;;;;;;;;;;10416288;28;20136;-82
2023/05/12 21:27:17;;;;;;;7.90;5.10;;;;;;;;;;10418973;28;20496;-80
2023/05/12 21:32:17;;;;;;;6.43;4.72;;;;;;;;;;10415195;28;20052;-83
2023/05/12 21:37:18;;;;;;;10.37;5.17;;;;;;;;;;10399986;28;20028;-81
2023/05/12 21:42:18;;;;;;;8.95;4.88;;;;;;;;;;10419825;28;20021;-82
2023/05/12 21:47:19;;;;;;;9.90;5.03;;;;;;;;;;10416679;28;20078;-83
2023/05/12 21:52:19;;;;;;;9.45;4.68;;;;;;;;;;10432788;28;20537;-79
2023/05/12 21:57:19;;;;;;;9.23;5.37;;;;;;;;;;10429215;28;20415;-80
2023/05/12 22:02:20;;;;;;;8.17;4.30;;;;;;;;;;10422578;28;20037;-81
2023/05/12 22:07:20;;;;;;;6.05;3.78;;;;;;;;;;10423223;28;20452;-80
2023/05/12 22:12:21;;;;;;;7.68;3.80;;;;;;;;;;10428086;28;20808;-80
2023/05/12 22:17:21;;;;;;;6.07;3.40;;;;;;;;;;10448994;28;20733;-80
2023/05/12 22:22:21;;;;;;;8.13;3.60;;;;;;;;;;10413475;28;20025;-78
2023/05/12 22:27:21;;;;;;;5.45;2.38;;;;;;;;;;10417418;28;20034;-79
2023/05/12 22:32:25;;;;;;;5.72;2.50;;;;;;;;;;10465599;28;20036;-79
2023/05/12 22:37:25;;;;;;;4.38;2.25;;;;;;;;;;10467147;28;20527;-79
2023/05/12 22:42:25;;;;;;;3.45;2.53;;;;;;;;;;10438325;28;20448;-78
2023/05/12 22:47:25;;;;;;;5.93;3.03;;;;;;;;;;10447042;28;20028;-78
2023/05/12 22:52:26;;;;;;;5.97;2.73;;;;;;;;;;10464400;28;20107;-78
2023/05/12 22:57:26;;;;;;;7.57;3.13;;;;;;;;;;10454888;28;20108;-78
2023/05/12 23:02:26;;;;;;;4.97;2.90;;;;;;;;;;10411292;28;20044;-78
2023/05/12 23:07:27;;;;;;;7.35;2.50;;;;;;;;;;10452292;28;20537;-79
2023/05/12 23:12:27;;;;;;;4.97;3.25;;;;;;;;;;10410007;28;20123;-78
2023/05/12 23:17:27;;;;;;;7.27;3.80;;;;;;;;;;10446022;28;20831;-79
2023/05/12 23:22:28;;;;;;;7.10;3.23;;;;;;;;;;10439448;28;20388;-78
2023/05/12 23:27:28;;;;;;;6.20;3.90;;;;;;;;;;10458673;28;20017;-78
2023/05/12 23:32:28;;;;;;;6.30;3.30;;;;;;;;;;10454170;28;20039;-78
2023/05/12 23:37:29;;;;;;;7.70;3.97;;;;;;;;;;10427568;28;20479;-79
2023/05/12 23:42:29;;;;;;;5.93;3.42;;;;;;;;;;10427809;28;20016;-78
2023/05/12 23:47:29;;;;;;;4.13;2.80;;;;;;;;;;10441245;28;21631;-77
2023/05/12 23:52:30;;;;;;;4.17;2.50;;;;;;;;;;10443541;28;20264;-78
2023/05/12 23:57:30;;;;;;;4.57;1.90;;;;;;;;;;10422855;28;20270;-78
